createdAt,value
2023-05-11T00:02:28.600Z,100075.81
2023-05-11T00:04:57.180Z,100081.75
2023-05-11T00:07:25.859Z,100076.81
2023-05-11T00:09:54.221Z,100079.06
2023-05-11T00:12:22.680Z,100073.56
2023-05-11T00:14:51.199Z,100055.66
2023-05-11T00:17:20.671Z,100077.22
2023-05-11T00:19:50.540Z,100075.41
2023-05-11T00:22:18.958Z,100069.50
2023-05-11T00:24:47.256Z,100073.16
2023-05-11T00:27:15.610Z,100076.25
2023-05-11T00:29:43.992Z,100074.00
2023-05-11T00:32:12.340Z,100066.06
2023-05-11T00:34:40.741Z,100069.50
2023-05-11T00:37:10.562Z,100068.28
2023-05-11T00:39:40.668Z,100070.13
2023-05-11T00:42:09.341Z,100070.13
2023-05-11T00:44:37.649Z,100069.72
2023-05-11T00:47:06.238Z,100071.97
2023-05-11T00:49:35.030Z,100067.66
2023-05-11T00:52:03.908Z,100067.28
2023-05-11T00:54:34.056Z,100068.69
2023-05-11T00:57:02.813Z,100070.72
2023-05-11T00:59:31.426Z,100071.75
2023-05-11T01:01:59.910Z,100071.16
2023-05-11T01:04:28.624Z,100068.91
2023-05-11T01:07:07.382Z,100072.16
2023-05-11T01:09:49.448Z,100057.66
2023-05-11T01:12:27.164Z,100067.63
2023-05-11T01:15:04.987Z,100069.06
2023-05-11T01:17:46.148Z,100066.63
2023-05-11T01:20:20.377Z,100068.84
2023-05-11T01:23:32.918Z,100059.06
2023-05-11T01:26:22.887Z,100073.50
2023-05-11T01:29:21.300Z,100070.44
2023-05-11T01:31:55.693Z,100046.41
2023-05-11T01:34:27.624Z,100063.34
2023-05-11T01:37:00.454Z,100061.53
2023-05-11T01:39:34.564Z,100056.25
2023-05-11T01:42:10.485Z,100063.56
2023-05-11T01:44:44.075Z,100061.31
2023-05-11T01:47:15.195Z,100061.94
2023-05-11T01:49:47.308Z,100074.34
2023-05-11T01:52:17.010Z,100072.31
2023-05-11T01:54:46.632Z,100073.72
2023-05-11T01:57:16.584Z,100068.59
2023-05-11T01:59:47.378Z,100058.84
2023-05-11T02:02:19.837Z,100071.88
2023-05-11T02:04:49.177Z,100078.97
2023-05-11T02:07:19.744Z,100083.84
2023-05-11T02:09:51.257Z,100065.88
2023-05-11T02:12:21.476Z,100080.94
2023-05-11T02:14:51.618Z,100074.53
2023-05-11T02:17:23.977Z,100086.56
2023-05-11T02:19:52.839Z,100085.38
2023-05-11T02:22:23.996Z,100080.47
2023-05-11T02:24:52.469Z,100084.00
2023-05-11T02:27:21.153Z,100080.09
2023-05-11T02:29:49.614Z,100078.06
2023-05-11T02:32:24.057Z,100084.72
2023-05-11T02:35:08.869Z,100084.53
2023-05-11T02:37:43.343Z,100083.50
2023-05-11T02:40:19.255Z,100083.25
2023-05-11T02:42:56.318Z,100080.09
2023-05-11T02:45:29.927Z,100080.69
2023-05-11T02:48:02.214Z,100077.22
2023-05-11T02:50:32.984Z,100078.53
2023-05-11T02:53:07.725Z,100077.06
2023-05-11T02:55:36.569Z,100077.53
2023-05-11T02:58:05.033Z,100078.63
2023-05-11T03:00:34.089Z,100068.97
2023-05-11T03:03:05.360Z,100079.34
2023-05-11T03:05:33.769Z,100076.03
2023-05-11T03:08:02.370Z,100072.97
2023-05-11T03:10:31.499Z,100070.50
2023-05-11T03:13:00.918Z,100070.88
2023-05-11T03:15:30.516Z,100067.03
2023-05-11T03:18:03.153Z,100072.47
2023-05-11T03:20:33.039Z,100077.22
2023-05-11T03:23:03.847Z,100088.63
2023-05-11T03:25:33.036Z,100077.13
2023-05-11T03:28:03.033Z,100089.00
2023-05-11T03:30:34.253Z,100078.81
2023-05-11T03:33:04.237Z,100068.56
2023-05-11T03:35:36.214Z,100085.25
2023-05-11T03:38:06.976Z,100079.34
2023-05-11T03:40:36.117Z,100078.22
2023-05-11T03:43:06.622Z,100084.66
2023-05-11T03:45:36.851Z,100089.16
2023-05-11T03:48:09.790Z,100080.00
2023-05-11T03:50:40.903Z,100087.88
2023-05-11T03:53:09.784Z,100082.84
2023-05-11T03:55:39.256Z,100086.88
2023-05-11T03:58:09.083Z,100092.03
2023-05-11T04:00:40.353Z,100089.66
2023-05-11T04:03:10.898Z,100074.91
2023-05-11T04:05:40.417Z,100073.47
2023-05-11T04:08:11.782Z,100085.19
2023-05-11T04:10:40.845Z,100064.81
2023-05-11T04:13:09.234Z,100072.53
2023-05-11T04:15:38.403Z,100082.53
2023-05-11T04:18:06.915Z,100083.75
2023-05-11T04:20:36.613Z,100088.75
2023-05-11T04:23:04.957Z,100084.03
2023-05-11T04:25:33.328Z,100093.81
2023-05-11T04:28:01.716Z,100083.66
2023-05-11T04:30:30.398Z,100083.25
2023-05-11T04:32:58.949Z,100080.44
2023-05-11T04:35:27.464Z,100091.75
2023-05-11T04:37:57.411Z,100090.53
2023-05-11T04:40:26.747Z,100089.56
2023-05-11T04:42:55.879Z,100095.44
2023-05-11T04:45:24.330Z,100103.16
2023-05-11T04:47:52.797Z,100086.03
2023-05-11T04:50:21.393Z,100105.94
2023-05-11T04:52:49.881Z,100104.84
2023-05-11T04:55:19.928Z,100093.94
2023-05-11T04:57:49.086Z,100100.78
2023-05-11T05:00:20.006Z,100092.91
2023-05-11T05:02:50.892Z,100096.41
2023-05-11T05:05:19.554Z,100101.34
2023-05-11T05:07:48.330Z,100104.91
2023-05-11T05:10:16.962Z,100102.28
2023-05-11T05:12:47.028Z,100107.81
2023-05-11T05:15:16.380Z,100103.59
2023-05-11T05:17:44.800Z,100106.25
2023-05-11T05:20:14.572Z,100097.28
2023-05-11T05:22:42.995Z,100109.66
2023-05-11T05:25:12.152Z,100113.00
2023-05-11T05:27:40.758Z,100115.81
2023-05-11T05:30:15.020Z,100115.19
2023-05-11T05:32:43.621Z,100113.00
2023-05-11T05:35:12.144Z,100118.91
2023-05-11T05:37:41.374Z,100115.88
2023-05-11T05:40:11.153Z,100092.81
2023-05-11T05:42:47.327Z,100105.91
2023-05-11T05:45:22.196Z,100123.63
2023-05-11T05:47:52.017Z,100124.72
2023-05-11T05:50:21.617Z,100125.72
2023-05-11T05:52:50.126Z,100127.19
2023-05-11T05:55:18.874Z,100136.38
2023-05-11T05:57:49.439Z,100134.94
2023-05-11T06:00:18.762Z,100127.19
2023-05-11T06:02:56.434Z,100145.94
2023-05-11T06:05:27.718Z,100119.84
2023-05-11T06:08:09.351Z,100136.75
2023-05-11T06:10:39.363Z,100141.69
2023-05-11T06:13:09.744Z,100134.53
2023-05-11T06:15:42.574Z,100138.84
2023-05-11T06:18:21.508Z,100138.69
2023-05-11T06:20:50.913Z,100142.31
2023-05-11T06:23:20.269Z,100142.34
2023-05-11T06:25:49.489Z,100137.88
2023-05-11T06:28:19.173Z,100145.22
2023-05-11T06:30:47.828Z,100144.59
2023-05-11T06:33:16.187Z,100132.81
2023-05-11T06:35:46.019Z,100118.34
2023-05-11T06:38:16.185Z,100150.53
2023-05-11T06:40:44.802Z,100155.44
2023-05-11T06:43:13.338Z,100149.91
2023-05-11T06:45:47.223Z,100145.66
2023-05-11T06:48:16.608Z,100151.56
2023-05-11T06:50:46.473Z,100152.41
2023-05-11T06:53:17.165Z,100147.31
2023-05-11T06:55:45.666Z,100142.84
2023-05-11T06:58:14.267Z,100140.38
2023-05-11T07:00:42.820Z,100148.75
2023-05-11T07:03:11.520Z,100141.03
2023-05-11T07:05:40.184Z,100145.72
2023-05-11T07:08:10.036Z,100144.28
2023-05-11T07:10:38.522Z,100143.28
2023-05-11T07:13:06.907Z,100145.53
2023-05-11T07:15:35.343Z,100136.16
2023-05-11T07:18:03.891Z,100129.00
2023-05-11T07:20:32.408Z,100143.69
2023-05-11T07:23:00.894Z,100145.09
2023-05-11T07:25:30.781Z,100147.13
2023-05-11T07:27:59.245Z,100145.50
2023-05-11T07:30:27.754Z,100154.28
2023-05-11T07:32:56.177Z,100145.53
2023-05-11T07:35:24.679Z,100146.94
2023-05-11T07:37:53.247Z,100152.22
2023-05-11T07:40:23.605Z,100147.94
2023-05-11T07:42:54.199Z,100157.13
2023-05-11T07:45:22.616Z,100155.91
2023-05-11T07:47:51.123Z,100154.69
2023-05-11T07:50:19.749Z,100162.19
2023-05-11T07:52:49.401Z,100164.06
2023-05-11T07:55:20.212Z,100146.94
2023-05-11T07:57:48.996Z,100152.25
2023-05-11T08:00:20.090Z,100155.09
2023-05-11T08:02:48.880Z,100151.63
2023-05-11T08:05:18.875Z,100148.16
2023-05-11T08:07:47.933Z,100145.72
2023-05-11T08:10:16.359Z,100162.00
2023-05-11T08:12:44.856Z,100148.16
2023-05-11T08:15:13.678Z,100148.97
2023-05-11T08:17:46.243Z,100152.47
2023-05-11T08:20:15.200Z,100142.06
2023-05-11T08:22:43.635Z,100146.13
2023-05-11T08:25:12.745Z,100149.19
2023-05-11T08:27:41.225Z,100145.31
2023-05-11T08:30:11.954Z,100151.81
2023-05-11T08:35:13.845Z,100153.84
2023-05-11T08:37:42.340Z,100147.53
2023-05-11T08:40:14.999Z,100153.00
2023-05-11T08:42:49.510Z,100154.22
2023-05-11T08:45:19.292Z,100151.75
2023-05-11T08:47:50.102Z,100147.78
2023-05-11T08:50:18.846Z,100152.03
2023-05-11T08:52:47.282Z,100151.22
2023-05-11T08:55:15.769Z,100154.50
2023-05-11T08:57:46.893Z,100150.41
2023-05-11T09:00:17.260Z,100152.66
2023-05-11T09:02:46.664Z,100151.22
2023-05-11T09:05:17.284Z,100154.47
2023-05-11T09:07:48.545Z,100163.88
2023-05-11T09:10:17.742Z,100157.75
2023-05-11T09:12:46.188Z,100153.28
2023-05-11T09:15:14.684Z,100153.28
2023-05-11T09:17:43.140Z,100164.56
2023-05-11T09:20:12.820Z,100159.66
2023-05-11T09:22:46.681Z,100159.88
2023-05-11T09:25:17.062Z,100152.94
2023-05-11T09:27:46.657Z,100155.81
2023-05-11T09:32:51.401Z,100155.34
2023-05-11T09:35:25.385Z,100156.97
2023-05-11T09:38:05.897Z,100149.84
2023-05-11T09:40:37.645Z,100157.16
2023-05-11T09:43:18.816Z,100157.38
2023-05-11T09:45:49.862Z,100152.50
2023-05-11T09:48:31.734Z,100148.81
2023-05-11T09:51:04.347Z,100154.88
2023-05-11T09:53:41.042Z,100158.13
2023-05-11T09:56:10.007Z,100158.72
2023-05-11T09:58:51.180Z,100143.41
2023-05-11T10:01:29.330Z,100152.16
2023-05-11T10:04:06.071Z,100151.56
2023-05-11T10:06:49.475Z,100160.91
2023-05-11T10:09:24.398Z,100155.81
2023-05-11T10:11:54.712Z,100144.59
2023-05-11T10:14:24.096Z,100144.00
2023-05-11T10:16:53.498Z,100144.56
2023-05-11T10:19:22.277Z,100140.69
2023-05-11T10:21:52.876Z,100144.53
2023-05-11T10:24:23.212Z,100143.47
2023-05-11T10:26:52.208Z,100135.47
2023-05-11T10:29:21.112Z,100142.56
2023-05-11T10:31:51.688Z,100131.25
2023-05-11T10:34:23.363Z,100140.59
2023-05-11T10:36:53.904Z,100137.34
2023-05-11T10:39:23.753Z,100137.56
2023-05-11T10:42:15.270Z,100140.53
2023-05-11T10:45:02.433Z,100129.91
2023-05-11T10:48:45.575Z,100134.97
2023-05-11T10:51:39.360Z,100129.31
2023-05-11T10:54:37.981Z,100143.25
2023-05-11T10:57:22.902Z,100138.22
2023-05-11T11:00:47.897Z,100135.22
2023-05-11T11:03:16.871Z,100136.84
2023-05-11T11:05:46.405Z,100127.47
2023-05-11T11:08:15.152Z,100123.56
2023-05-11T11:10:46.793Z,100131.72
2023-05-11T11:13:16.886Z,100131.00
2023-05-11T11:16:16.178Z,100123.34
2023-05-11T11:18:45.378Z,100125.56
2023-05-11T11:21:15.875Z,100121.66
2023-05-11T11:23:49.135Z,100130.59
2023-05-11T11:26:50.452Z,100132.63
2023-05-11T11:29:19.028Z,100127.06
2023-05-11T11:31:47.735Z,100125.66
2023-05-11T11:34:38.920Z,100122.41
2023-05-11T11:37:10.013Z,100123.50
2023-05-11T11:40:13.297Z,100127.63
2023-05-11T11:42:45.018Z,100124.22
2023-05-11T11:45:33.846Z,100119.31
2023-05-11T11:48:16.635Z,100130.47
2023-05-11T11:50:48.425Z,100127.34
2023-05-11T11:54:06.610Z,100131.13
2023-05-11T11:56:45.970Z,100126.56
2023-05-11T11:59:16.477Z,100125.94
2023-05-11T12:01:46.568Z,100129.47
2023-05-11T12:04:57.745Z,100126.59
2023-05-11T12:07:27.546Z,100120.16
2023-05-11T12:09:56.867Z,100123.47
2023-05-11T12:12:25.909Z,100128.72
2023-05-11T12:14:56.104Z,100123.41
2023-05-11T12:17:30.898Z,100128.53
2023-05-11T12:20:15.540Z,100117.44
2023-05-11T12:22:44.579Z,100122.78
2023-05-11T12:25:17.848Z,100120.94
2023-05-11T12:27:52.199Z,100127.28
2023-05-11T12:30:23.985Z,100125.22
2023-05-11T12:32:56.803Z,100119.53
2023-05-11T12:35:27.625Z,100129.53
2023-05-11T12:37:57.498Z,100127.88
2023-05-11T12:40:26.012Z,100126.03
2023-05-11T12:42:55.944Z,100125.72
2023-05-11T12:45:27.535Z,100121.28
2023-05-11T12:47:58.586Z,100125.66
2023-05-11T12:50:27.221Z,100128.34
2023-05-11T12:52:55.717Z,100128.34
2023-05-11T12:55:31.467Z,100120.22
2023-05-11T12:58:11.584Z,100120.56
2023-05-11T13:00:54.152Z,100104.28
2023-05-11T13:03:24.034Z,100104.09
2023-05-11T13:05:52.718Z,100105.50
2023-05-11T13:08:21.697Z,100115.09
2023-05-11T13:10:50.049Z,100102.19
2023-05-11T13:13:28.668Z,100116.00
2023-05-11T13:15:59.006Z,100105.25
2023-05-11T13:18:27.419Z,100102.91
2023-05-11T13:21:08.679Z,100095.41
2023-05-11T13:23:37.407Z,100094.63
2023-05-11T13:26:05.854Z,100104.34
2023-05-11T13:28:35.729Z,100093.97
2023-05-11T13:31:05.771Z,100102.09
2023-05-11T13:33:34.686Z,100098.97
2023-05-11T13:36:03.641Z,100099.13
2023-05-11T13:38:32.117Z,100096.44
2023-05-11T13:41:00.531Z,100090.69
2023-05-11T13:43:29.693Z,100092.69
2023-05-11T13:45:58.106Z,100093.69
2023-05-11T13:48:27.800Z,100090.75
2023-05-11T13:50:56.167Z,100090.69
2023-05-11T13:53:24.591Z,100093.16
2023-05-11T13:55:53.011Z,100081.94
2023-05-11T13:58:21.795Z,100087.50
2023-05-11T14:01:06.591Z,100086.03
2023-05-11T14:03:37.316Z,100084.03
2023-05-11T14:06:07.685Z,100083.84
2023-05-11T14:08:36.162Z,100073.63
2023-05-11T14:11:06.030Z,100083.00
2023-05-11T14:13:34.346Z,100083.53
2023-05-11T14:16:02.816Z,100079.19
2023-05-11T14:18:31.408Z,100058.16
2023-05-11T14:21:01.325Z,100075.41
2023-05-11T14:23:29.737Z,100070.09
2023-05-11T14:25:58.266Z,100078.34
2023-05-11T14:28:27.091Z,100074.28
2023-05-11T14:30:56.477Z,100073.63
2023-05-11T14:33:25.820Z,100075.25
2023-05-11T14:35:55.521Z,100065.13
2023-05-11T14:38:25.274Z,100077.00
2023-05-11T14:40:54.922Z,100079.84
2023-05-11T14:43:24.260Z,100074.09
2023-05-11T14:45:52.724Z,100074.88
2023-05-11T14:48:21.817Z,100076.13
2023-05-11T14:50:50.243Z,100073.75
2023-05-11T14:53:18.723Z,100072.47
2023-05-11T14:55:48.775Z,100063.47
2023-05-11T14:58:17.441Z,100071.44
2023-05-11T15:00:45.876Z,100076.53
2023-05-11T15:03:14.500Z,100073.63
2023-05-11T15:05:42.990Z,100071.44
2023-05-11T15:08:22.088Z,100068.50
2023-05-11T15:10:59.371Z,100078.66
2023-05-11T15:13:27.929Z,100067.13
2023-05-11T15:15:56.326Z,100067.50
2023-05-11T15:18:24.710Z,100070.97
2023-05-11T15:20:53.116Z,100063.00
2023-05-11T15:23:21.652Z,100078.44
2023-05-11T15:25:50.234Z,100077.47
2023-05-11T15:28:20.216Z,100070.34
2023-05-11T15:30:49.431Z,100072.19
2023-05-11T15:33:19.986Z,100069.91
2023-05-11T15:35:50.204Z,100064.03
2023-05-11T15:38:19.135Z,100068.09
2023-05-11T15:40:47.513Z,100072.88
2023-05-11T15:43:17.705Z,100070.28
2023-05-11T15:45:47.604Z,100067.44
2023-05-11T15:48:15.993Z,100069.03
2023-05-11T15:50:44.344Z,100060.00
2023-05-11T15:53:13.870Z,100066.16
2023-05-11T15:55:45.436Z,100064.25
2023-05-11T15:58:13.814Z,100061.63
2023-05-11T16:00:42.320Z,100066.75
2023-05-11T16:03:12.225Z,100069.41
2023-05-11T16:05:41.056Z,100069.94
2023-05-11T16:08:09.500Z,100062.78
2023-05-11T16:10:38.117Z,100065.66
2023-05-11T16:13:06.504Z,100066.28
2023-05-11T16:15:36.755Z,100056.25
2023-05-11T16:18:05.833Z,100069.34
2023-05-11T16:20:35.624Z,100063.69
2023-05-11T16:23:04.391Z,100061.47
2023-05-11T16:25:32.803Z,100051.94
2023-05-11T16:28:01.525Z,100066.81
2023-05-11T16:30:30.139Z,100059.72
2023-05-11T16:32:58.905Z,100065.84
2023-05-11T16:35:27.389Z,100066.25
2023-05-11T16:37:59.373Z,100058.56
2023-05-11T16:40:27.925Z,100061.75
2023-05-11T16:42:56.300Z,100066.84
2023-05-11T16:45:24.903Z,100063.59
2023-05-11T16:47:53.650Z,100041.41
2023-05-11T16:50:22.507Z,100061.53
2023-05-11T16:52:51.026Z,100058.25
2023-05-11T16:55:21.402Z,100060.53
2023-05-11T16:57:51.560Z,100055.22
2023-05-11T17:00:20.769Z,100061.59
2023-05-11T17:02:49.840Z,100061.38
2023-05-11T17:05:19.058Z,100063.38
2023-05-11T17:07:47.435Z,100055.31
2023-05-11T17:10:16.171Z,100058.56
2023-05-11T17:12:45.921Z,100053.22
2023-05-11T17:15:14.338Z,100064.00
2023-05-11T17:17:42.702Z,100059.38
2023-05-11T17:20:12.394Z,100064.50
2023-05-11T17:22:40.707Z,100064.88
2023-05-11T17:25:10.211Z,100065.47
2023-05-11T17:27:38.702Z,100060.16
2023-05-11T17:30:10.465Z,100070.19
2023-05-11T17:32:39.014Z,100061.81
2023-05-11T17:35:09.284Z,100068.03
2023-05-11T17:37:37.783Z,100070.69
2023-05-11T17:40:07.912Z,100069.66
2023-05-11T17:42:36.230Z,100067.66
2023-05-11T17:45:05.008Z,100071.72
2023-05-11T17:47:34.863Z,100079.53
2023-05-11T17:50:03.659Z,100075.66
2023-05-11T17:52:32.632Z,100076.69
2023-05-11T17:55:02.462Z,100075.59
2023-05-11T17:57:30.927Z,100071.16
2023-05-11T17:59:59.262Z,100083.19
2023-05-11T18:02:27.824Z,100045.78
2023-05-11T18:04:57.626Z,100074.06
2023-05-11T18:07:26.084Z,100079.16
2023-05-11T18:09:54.431Z,100079.81
2023-05-11T18:12:22.941Z,100074.34
2023-05-11T18:14:51.351Z,100075.16
2023-05-11T18:17:19.798Z,100079.41
2023-05-11T18:19:48.204Z,100079.03
2023-05-11T18:22:18.220Z,100077.38
2023-05-11T18:24:46.725Z,100084.31
2023-05-11T18:27:15.300Z,100084.13
2023-05-11T18:29:45.105Z,100084.53
2023-05-11T18:32:13.543Z,100090.25
2023-05-11T18:34:42.561Z,100086.59
2023-05-11T18:37:11.302Z,100090.03
2023-05-11T18:39:41.098Z,100086.78
2023-05-11T18:42:09.473Z,100083.72
2023-05-11T18:44:37.824Z,100084.97
2023-05-11T18:47:07.218Z,100079.03
2023-05-11T18:49:35.633Z,100084.97
2023-05-11T18:52:04.405Z,100086.59
2023-05-11T18:54:33.751Z,100089.44
2023-05-11T18:57:04.164Z,100089.84
2023-05-11T18:59:32.548Z,100092.47
2023-05-11T19:02:01.353Z,100094.34
2023-05-11T19:04:30.487Z,100089.44
2023-05-11T19:06:58.802Z,100094.34
2023-05-11T19:09:28.164Z,100098.00
2023-05-11T19:11:56.964Z,100092.28
2023-05-11T19:14:26.955Z,100105.53
2023-05-11T19:16:55.458Z,100114.75
2023-05-11T19:19:23.829Z,100103.09
2023-05-11T19:21:52.744Z,100109.44
2023-05-11T19:24:21.109Z,100101.91
2023-05-11T19:26:58.877Z,100110.44
2023-05-11T19:29:35.630Z,100108.63
2023-05-11T19:32:04.146Z,100106.16
2023-05-11T19:34:32.787Z,100106.56
2023-05-11T19:37:01.221Z,100118.00
2023-05-11T19:39:29.570Z,100108.19
2023-05-11T19:41:57.926Z,100115.34
2023-05-11T19:44:26.362Z,100119.25
2023-05-11T19:46:56.071Z,100118.78
2023-05-11T19:49:24.809Z,100120.66
2023-05-11T19:51:53.262Z,100116.34
2023-05-11T19:54:22.338Z,100123.94
2023-05-11T19:56:50.710Z,100122.50
2023-05-11T19:59:19.525Z,100126.75
2023-05-11T20:01:47.979Z,100126.75
2023-05-11T20:04:17.997Z,100117.56
2023-05-11T20:06:46.327Z,100131.03
2023-05-11T20:09:14.839Z,100122.25
2023-05-11T20:11:43.293Z,100125.31
2023-05-11T20:14:11.651Z,100127.13
2023-05-11T20:16:40.102Z,100132.25
2023-05-11T20:19:09.395Z,100123.28
2023-05-11T20:21:39.265Z,100121.84
2023-05-11T20:24:08.057Z,100122.06
2023-05-11T20:26:37.796Z,100125.53
2023-05-11T20:29:07.792Z,100116.34
2023-05-11T20:31:36.409Z,100121.69
2023-05-11T20:34:07.581Z,100120.44
2023-05-11T20:36:36.101Z,100122.25
2023-05-11T20:39:06.007Z,100126.97
2023-05-11T20:41:34.945Z,100117.56
2023-05-11T20:44:03.940Z,100106.19
2023-05-11T20:46:32.255Z,100115.97
2023-05-11T20:49:00.562Z,100109.63
2023-05-11T20:51:28.926Z,100110.66
2023-05-11T20:53:57.353Z,100108.41
2023-05-11T20:56:27.156Z,100106.78
2023-05-11T20:58:55.502Z,100106.38
2023-05-11T21:01:23.983Z,100105.97
2023-05-11T21:03:52.446Z,100106.19
2023-05-11T21:06:20.809Z,100100.91
2023-05-11T21:08:49.296Z,100100.88
2023-05-11T21:11:18.089Z,100085.81
2023-05-11T21:13:48.810Z,100105.78
2023-05-11T21:16:17.503Z,100103.72
2023-05-11T21:18:46.009Z,100089.66
2023-05-11T21:21:15.387Z,100092.94
2023-05-11T21:23:44.237Z,100093.53
2023-05-11T21:26:13.656Z,100089.06
2023-05-11T21:28:42.336Z,100086.03
2023-05-11T21:31:12.155Z,100085.19
2023-05-11T21:33:40.597Z,100088.84
2023-05-11T21:36:09.459Z,100087.03
2023-05-11T21:38:37.765Z,100090.91
2023-05-11T21:41:06.275Z,100087.41
2023-05-11T21:43:34.710Z,100079.91
2023-05-11T21:46:03.127Z,100078.88
2023-05-11T21:48:33.080Z,100080.69
2023-05-11T21:51:01.504Z,100052.78
2023-05-11T21:53:29.915Z,100080.53
2023-05-11T21:55:58.344Z,100079.69
2023-05-11T21:58:27.544Z,100081.13
2023-05-11T22:00:57.052Z,100080.28
2023-05-11T22:03:25.627Z,100084.97
2023-05-11T22:05:55.557Z,100082.75
2023-05-11T22:08:24.192Z,100076.63
2023-05-11T22:10:52.581Z,100078.47
2023-05-11T22:13:21.104Z,100075.22
2023-05-11T22:15:49.526Z,100081.72
2023-05-11T22:18:17.953Z,100076.44
2023-05-11T22:20:46.324Z,100079.28
2023-05-11T22:23:49.432Z,100071.34
2023-05-11T22:26:18.037Z,100078.47
2023-05-11T22:28:47.163Z,100076.44
2023-05-11T22:31:15.552Z,100078.88
2023-05-11T22:33:43.949Z,100071.13
2023-05-11T22:36:12.887Z,100079.06
2023-05-11T22:38:42.707Z,100076.00
2023-05-11T22:41:11.088Z,100066.84
2023-05-11T22:43:39.427Z,100077.44
2023-05-11T22:46:07.905Z,100088.25
2023-05-11T22:48:36.271Z,100080.09
2023-05-11T22:51:06.471Z,100079.28
2023-05-11T22:53:34.962Z,100081.31
2023-05-11T22:56:05.788Z,100079.28
2023-05-11T22:58:34.277Z,100080.50
2023-05-11T23:01:02.805Z,100085.56
2023-05-11T23:03:31.246Z,100089.03
2023-05-11T23:05:59.674Z,100083.94
2023-05-11T23:08:28.070Z,100064.38
2023-05-11T23:10:56.440Z,100076.63
2023-05-11T23:13:26.417Z,100083.13
2023-05-11T23:15:54.853Z,100065.38
2023-05-11T23:18:23.387Z,100082.47
2023-05-11T23:20:57.469Z,100067.41
2023-05-11T23:23:26.084Z,100073.31
2023-05-11T23:25:54.963Z,100079.81
2023-05-11T23:28:23.557Z,100078.41
2023-05-11T23:30:53.314Z,100082.06
2023-05-11T23:33:21.854Z,100076.41
2023-05-11T23:35:50.253Z,100071.94
2023-05-11T23:38:18.800Z,100071.28
2023-05-11T23:40:59.474Z,100068.66
2023-05-11T23:43:28.854Z,100059.69
2023-05-11T23:45:58.591Z,100061.94
2023-05-11T23:48:26.927Z,100072.16
2023-05-11T23:50:55.310Z,100075.19
2023-05-11T23:53:23.684Z,100070.72
2023-05-11T23:55:52.049Z,100071.50
2023-05-11T23:58:20.416Z,100070.72
